createdAt,value
2019-02-22T00:00:44.014Z,31.23
2019-02-22T00:03:12.666Z,29.63
2019-02-22T00:05:41.902Z,24.20
2019-02-22T00:08:10.467Z,30.17
2019-02-22T00:10:40.946Z,25.53
2019-02-22T00:13:09.381Z,32.03
2019-02-22T00:15:38.201Z,31.60
2019-02-22T00:18:06.917Z,23.30
2019-02-22T00:20:35.421Z,25.63
2019-02-22T00:23:04.150Z,32.13
2019-02-22T00:25:32.651Z,33.17
2019-02-22T00:28:01.353Z,27.63
2019-02-22T00:30:30.485Z,30.67
2019-02-22T00:32:59.265Z,29.87
2019-02-22T00:35:28.021Z,27.07
2019-02-22T00:37:56.510Z,28.57
2019-02-22T00:40:25.829Z,26.07
2019-02-22T00:42:54.618Z,31.17
2019-02-22T00:45:23.505Z,36.17
2019-02-22T00:47:52.229Z,32.50
2019-02-22T00:50:21.801Z,30.60
2019-02-22T00:52:50.361Z,28.67
2019-02-22T00:55:19.078Z,25.60
2019-02-22T00:57:47.611Z,29.70
2019-02-22T01:00:16.124Z,35.50
2019-02-22T01:02:44.563Z,29.60
2019-02-22T01:05:13.073Z,29.57
2019-02-22T01:07:41.812Z,29.80
2019-02-22T01:10:10.421Z,41.33
2019-02-22T01:12:39.148Z,34.73
2019-02-22T01:15:08.491Z,32.13
2019-02-22T01:17:36.922Z,30.53
2019-02-22T01:20:06.500Z,27.33
2019-02-22T01:22:35.294Z,31.37
2019-02-22T01:25:03.880Z,27.13
2019-02-22T01:27:32.313Z,29.67
2019-02-22T01:30:00.815Z,36.83
2019-02-22T01:32:29.215Z,31.70
2019-02-22T01:34:57.667Z,28.60
2019-02-22T01:37:26.425Z,28.60
2019-02-22T01:39:54.865Z,33.07
2019-02-22T01:42:23.283Z,28.00
2019-02-22T01:44:51.737Z,31.03
2019-02-22T01:47:20.246Z,26.67
2019-02-22T01:49:49.034Z,31.07
2019-02-22T01:52:17.497Z,33.20
2019-02-22T01:54:45.924Z,27.63
2019-02-22T01:57:14.367Z,28.70
2019-02-22T01:59:42.940Z,29.37
2019-02-22T02:02:11.357Z,32.57
2019-02-22T02:04:39.786Z,26.47
2019-02-22T02:07:08.249Z,30.33
2019-02-22T02:09:36.749Z,34.30
2019-02-22T02:12:05.561Z,26.57
2019-02-22T02:14:34.032Z,31.43
2019-02-22T02:17:02.463Z,27.50
2019-02-22T02:19:30.893Z,33.03
2019-02-22T02:21:59.348Z,28.47
2019-02-22T02:24:27.777Z,29.03
2019-02-22T02:26:56.214Z,30.57
2019-02-22T02:29:24.681Z,30.87
2019-02-22T02:31:54.730Z,32.20
2019-02-22T02:34:23.156Z,30.33
2019-02-22T02:36:51.713Z,29.10
2019-02-22T02:39:20.141Z,34.13
2019-02-22T02:41:48.573Z,29.00
2019-02-22T02:44:17.029Z,35.73
2019-02-22T02:46:45.464Z,47.53
2019-02-22T02:49:13.981Z,44.50
2019-02-22T02:51:42.439Z,50.40
2019-02-22T02:54:10.968Z,60.80
2019-02-22T02:56:39.399Z,62.53
2019-02-22T02:59:07.864Z,72.23
2019-02-22T03:01:36.294Z,58.97
2019-02-22T03:04:24.261Z,57.23
2019-02-22T03:07:11.817Z,61.50
2019-02-22T03:12:14.213Z,68.97
2019-02-22T03:14:42.640Z,60.77
2019-02-22T03:17:11.094Z,52.53
2019-02-22T03:19:39.526Z,74.77
2019-02-22T03:22:07.953Z,69.87
2019-02-22T03:24:36.801Z,64.83
2019-02-22T03:27:24.601Z,66.07
2019-02-22T03:32:27.519Z,61.93
2019-02-22T03:37:30.383Z,68.93
2019-02-22T03:40:18.134Z,73.73
2019-02-22T03:42:46.586Z,60.47
2019-02-22T03:48:08.763Z,82.13
2019-02-22T03:50:37.219Z,74.77
2019-02-22T03:53:24.770Z,78.70
2019-02-22T03:56:12.568Z,75.70
2019-02-22T03:58:41.070Z,86.10
2019-02-22T04:01:09.508Z,80.80
2019-02-22T04:03:57.160Z,75.90
2019-02-22T04:06:44.780Z,76.17
2019-02-22T04:09:13.321Z,86.73
2019-02-22T04:11:45.544Z,89.60
2019-02-22T04:14:12.242Z,91.63
2019-02-22T04:16:40.703Z,92.80
2019-02-22T04:19:09.138Z,84.70
2019-02-22T04:21:37.667Z,88.40
2019-02-22T04:24:06.154Z,86.83
2019-02-22T04:26:34.597Z,82.87
2019-02-22T04:29:03.035Z,88.00
2019-02-22T04:31:31.567Z,78.13
2019-02-22T04:34:19.202Z,83.27
2019-02-22T04:36:47.673Z,81.27
2019-02-22T04:39:16.114Z,88.07
2019-02-22T04:41:44.550Z,92.63
2019-02-22T04:44:13.366Z,89.87
2019-02-22T04:46:41.820Z,87.37
2019-02-22T04:49:10.257Z,77.13
2019-02-22T04:54:13.235Z,80.13
2019-02-22T04:59:15.394Z,80.23
2019-02-22T05:01:43.826Z,79.60
2019-02-22T05:04:12.581Z,88.23
2019-02-22T05:06:41.020Z,67.37
2019-02-22T05:09:09.454Z,72.67
2019-02-22T05:11:37.931Z,68.47
2019-02-22T05:14:06.370Z,65.47
2019-02-22T05:16:34.911Z,59.20
2019-02-22T05:19:03.404Z,61.60
2019-02-22T05:21:31.815Z,60.57
2019-02-22T05:24:19.486Z,60.07
2019-02-22T05:26:47.928Z,59.63
2019-02-22T05:29:16.373Z,58.87
2019-02-22T05:31:44.844Z,62.70
2019-02-22T05:34:13.280Z,58.87
2019-02-22T05:36:44.154Z,51.93
2019-02-22T05:39:18.945Z,60.33
2019-02-22T05:41:42.237Z,57.27
2019-02-22T05:44:10.752Z,57.70
2019-02-22T05:46:39.218Z,66.83
2019-02-22T05:49:07.663Z,65.03
2019-02-22T05:51:55.454Z,69.07
2019-02-22T05:54:23.894Z,63.53
2019-02-22T05:57:14.222Z,61.07
2019-02-22T05:59:42.046Z,64.70
2019-02-22T06:02:10.844Z,67.00
2019-02-22T06:04:39.304Z,76.17
2019-02-22T06:07:08.104Z,62.23
2019-02-22T06:09:36.543Z,64.50
2019-02-22T06:14:58.240Z,70.17
2019-02-22T06:17:26.675Z,64.80
2019-02-22T06:19:55.137Z,66.30
2019-02-22T06:22:29.644Z,62.10
2019-02-22T06:24:53.732Z,68.43
2019-02-22T06:27:22.230Z,65.73
2019-02-22T06:29:50.661Z,63.73
2019-02-22T06:32:19.093Z,66.27
2019-02-22T06:34:47.569Z,67.30
2019-02-22T06:37:16.008Z,68.20
2019-02-22T06:39:44.446Z,67.73
2019-02-22T06:44:47.291Z,67.20
2019-02-22T06:47:15.866Z,117.20
2019-02-22T06:49:44.646Z,147.20
2019-02-22T06:52:14.502Z,156.67
2019-02-22T06:57:17.069Z,77.60
2019-02-22T06:59:45.834Z,67.13
2019-02-22T07:02:14.295Z,69.40
2019-02-22T07:04:43.002Z,68.37
2019-02-22T07:07:11.445Z,74.80
2019-02-22T07:09:39.914Z,72.17
2019-02-22T07:12:28.238Z,91.27
2019-02-22T07:15:15.943Z,81.60
2019-02-22T07:17:44.383Z,98.93
2019-02-22T07:20:12.899Z,89.77
2019-02-22T07:22:41.552Z,89.23
2019-02-22T07:25:50.410Z,84.63
2019-02-22T07:28:18.879Z,84.87
2019-02-22T07:30:47.328Z,93.80
2019-02-22T07:33:15.772Z,83.93
2019-02-22T07:35:44.279Z,85.83
2019-02-22T07:38:12.815Z,89.90
2019-02-22T07:40:41.257Z,102.47
2019-02-22T07:43:09.763Z,97.73
2019-02-22T07:45:38.195Z,92.23
2019-02-22T07:48:06.724Z,86.73
2019-02-22T07:50:35.267Z,93.43
2019-02-22T07:53:03.669Z,99.93
2019-02-22T07:55:32.180Z,84.30
2019-02-22T07:58:00.654Z,89.30
2019-02-22T08:00:29.393Z,83.17
2019-02-22T08:02:57.830Z,78.97
2019-02-22T08:05:26.699Z,83.83
2019-02-22T08:07:55.138Z,86.57
2019-02-22T08:10:26.180Z,80.50
2019-02-22T08:12:54.189Z,76.83
2019-02-22T08:15:22.627Z,72.60
2019-02-22T08:17:51.085Z,69.90
2019-02-22T08:20:19.734Z,67.30
2019-02-22T08:22:48.559Z,66.00
2019-02-22T08:25:17.023Z,66.73
2019-02-22T08:27:53.861Z,62.67
2019-02-22T08:30:15.989Z,54.53
2019-02-22T08:32:44.430Z,54.83
2019-02-22T08:35:13.004Z,51.27
2019-02-22T08:37:41.438Z,56.97
2019-02-22T08:40:10.821Z,57.80
2019-02-22T08:42:39.317Z,56.67
2019-02-22T08:45:09.853Z,52.77
2019-02-22T08:47:38.421Z,51.70
2019-02-22T08:50:08.025Z,56.07
2019-02-22T08:52:36.474Z,48.00
2019-02-22T08:55:06.154Z,54.30
2019-02-22T08:57:35.142Z,49.07
2019-02-22T09:00:04.394Z,50.67
2019-02-22T09:02:33.194Z,43.73
2019-02-22T09:05:01.651Z,45.30
2019-02-22T09:07:30.106Z,40.83
2019-02-22T09:09:58.567Z,44.10
2019-02-22T09:12:27.026Z,38.43
2019-02-22T09:14:55.457Z,36.13
2019-02-22T09:17:23.895Z,35.70
2019-02-22T09:19:52.601Z,33.83
2019-02-22T09:22:23.161Z,36.03
2019-02-22T09:24:51.235Z,35.70
2019-02-22T09:27:19.798Z,34.47
2019-02-22T09:29:58.531Z,32.30
2019-02-22T09:32:18.745Z,28.30
2019-02-22T09:34:47.545Z,33.40
2019-02-22T09:37:15.987Z,30.63
2019-02-22T09:39:44.508Z,24.87
2019-02-22T09:42:13.397Z,25.20
2019-02-22T09:44:42.181Z,27.13
2019-02-22T09:47:10.663Z,23.40
2019-02-22T09:49:39.205Z,23.30
2019-02-22T09:52:07.635Z,22.27
2019-02-22T09:54:36.071Z,23.80
2019-02-22T09:57:04.599Z,17.50
2019-02-22T09:59:33.125Z,16.77
2019-02-22T10:02:01.597Z,16.63
2019-02-22T10:04:30.135Z,15.17
2019-02-22T10:06:58.684Z,14.30
2019-02-22T10:09:27.123Z,14.80
2019-02-22T10:11:55.607Z,15.53
2019-02-22T10:14:24.130Z,16.03
2019-02-22T10:16:52.561Z,12.80
2019-02-22T10:19:21.345Z,14.63
2019-02-22T10:21:49.785Z,12.30
2019-02-22T10:24:18.220Z,13.67
2019-02-22T10:26:46.807Z,11.43
2019-02-22T10:29:15.239Z,13.10
2019-02-22T10:31:43.670Z,12.20
2019-02-22T10:34:12.141Z,12.77
2019-02-22T10:36:45.108Z,12.63
2019-02-22T10:39:11.118Z,11.80
2019-02-22T10:41:39.664Z,10.07
2019-02-22T10:44:17.436Z,8.07
2019-02-22T10:46:38.416Z,5.80
2019-02-22T10:49:06.892Z,4.57
2019-02-22T10:51:35.711Z,6.10
2019-02-22T10:54:04.233Z,6.33
2019-02-22T10:56:32.687Z,5.17
2019-02-22T10:59:01.130Z,5.00
2019-02-22T11:01:29.629Z,3.90
2019-02-22T11:03:58.591Z,3.50
2019-02-22T11:06:27.330Z,4.43
2019-02-22T11:08:55.756Z,2.93
2019-02-22T11:11:24.380Z,3.50
2019-02-22T11:13:52.809Z,6.93
2019-02-22T11:16:21.347Z,2.13
2019-02-22T11:18:49.946Z,2.93
2019-02-22T11:21:18.379Z,4.33
2019-02-22T11:23:46.803Z,4.27
2019-02-22T11:26:15.344Z,3.10
2019-02-22T11:28:43.777Z,6.60
2019-02-22T11:31:14.447Z,1.97
2019-02-22T11:33:42.680Z,2.03
2019-02-22T11:36:11.127Z,3.83
2019-02-22T11:38:39.536Z,5.43
2019-02-22T11:41:08.424Z,5.47
2019-02-22T11:43:36.858Z,3.10
2019-02-22T11:46:05.642Z,2.00
2019-02-22T11:48:34.195Z,2.27
2019-02-22T11:51:02.914Z,2.10
2019-02-22T11:53:31.415Z,3.83
2019-02-22T11:55:59.936Z,3.00
2019-02-22T11:58:29.187Z,3.30
2019-02-22T12:00:57.990Z,2.80
2019-02-22T12:03:26.811Z,2.13
2019-02-22T12:05:55.235Z,3.77
2019-02-22T12:08:23.669Z,2.50
2019-02-22T12:10:52.203Z,1.50
2019-02-22T12:13:21.009Z,2.03
2019-02-22T12:15:49.444Z,1.60
2019-02-22T12:18:18.559Z,1.70
2019-02-22T12:20:46.987Z,1.70
2019-02-22T12:23:15.411Z,1.80
2019-02-22T12:25:44.581Z,1.00
2019-02-22T12:28:13.181Z,2.33
2019-02-22T12:30:41.688Z,5.20
2019-02-22T12:33:10.182Z,1.47
2019-02-22T12:35:38.693Z,1.73
2019-02-22T12:38:07.235Z,1.93
2019-02-22T12:40:38.211Z,1.53
2019-02-22T12:43:07.322Z,1.27
2019-02-22T12:45:35.922Z,1.50
2019-02-22T12:48:04.448Z,3.53
2019-02-22T12:50:32.868Z,1.70
2019-02-22T12:53:01.324Z,1.90
2019-02-22T12:55:29.833Z,1.60
2019-02-22T12:57:58.679Z,2.13
2019-02-22T13:00:27.125Z,3.87
2019-02-22T13:03:02.175Z,1.70
2019-02-22T13:05:30.712Z,2.47
2019-02-22T13:07:59.141Z,1.70
2019-02-22T13:10:29.467Z,2.17
2019-02-22T13:12:57.949Z,9.30
2019-02-22T13:15:26.547Z,1.40
2019-02-22T13:17:55.080Z,8.93
2019-02-22T13:20:23.511Z,1.87
2019-02-22T13:22:51.944Z,2.30
2019-02-22T13:25:20.413Z,5.13
2019-02-22T13:27:48.855Z,1.00
2019-02-22T13:30:18.429Z,0.90
2019-02-22T13:32:47.156Z,4.67
2019-02-22T13:35:15.665Z,1.10
2019-02-22T13:37:44.197Z,1.30
2019-02-22T13:40:31.993Z,1.03
2019-02-22T13:43:00.516Z,1.03
2019-02-22T13:45:28.957Z,1.97
2019-02-22T13:51:09.830Z,2.13
2019-02-22T13:53:38.318Z,1.30
2019-02-22T13:56:06.843Z,1.67
2019-02-22T13:58:35.361Z,1.70
2019-02-22T14:01:03.920Z,2.23
2019-02-22T14:03:32.367Z,2.40
2019-02-22T14:06:02.723Z,6.70
2019-02-22T14:08:30.984Z,3.30
2019-02-22T14:10:59.744Z,2.10
2019-02-22T14:13:28.557Z,1.53
2019-02-22T14:18:31.526Z,3.40
2019-02-22T14:20:59.987Z,5.17
2019-02-22T14:23:28.420Z,3.57
2019-02-22T14:25:56.864Z,7.63
2019-02-22T14:28:25.320Z,3.07
2019-02-22T14:30:53.743Z,3.20
2019-02-22T14:33:22.173Z,10.50
2019-02-22T14:35:50.756Z,5.10
2019-02-22T14:38:19.496Z,2.80
2019-02-22T14:40:48.034Z,3.53
2019-02-22T14:43:17.044Z,3.50
2019-02-22T14:45:50.852Z,4.10
2019-02-22T14:48:36.145Z,3.43
2019-02-22T14:51:05.528Z,3.53
2019-02-22T14:53:33.977Z,3.63
2019-02-22T14:56:02.474Z,5.27
2019-02-22T14:58:30.892Z,3.90
2019-02-22T15:00:59.315Z,5.63
2019-02-22T15:03:27.878Z,3.07
2019-02-22T15:05:56.301Z,6.87
2019-02-22T15:08:24.727Z,3.47
2019-02-22T15:10:53.182Z,3.37
2019-02-22T15:13:21.609Z,6.27
2019-02-22T15:16:09.186Z,3.00
2019-02-22T15:18:37.704Z,3.30
2019-02-22T15:21:06.129Z,3.73
2019-02-22T15:26:08.639Z,3.10
2019-02-22T15:28:37.097Z,3.30
2019-02-22T15:31:45.688Z,3.20
2019-02-22T15:34:14.457Z,3.90
2019-02-22T15:37:02.066Z,3.13
2019-02-22T15:39:30.528Z,2.80
2019-02-22T15:41:58.959Z,2.77
2019-02-22T15:44:27.377Z,3.00
2019-02-22T15:46:56.112Z,3.20
2019-02-22T15:49:24.582Z,3.00
2019-02-22T15:51:52.952Z,2.83
2019-02-22T15:54:21.491Z,2.73
2019-02-22T15:56:50.232Z,3.57
2019-02-22T15:59:20.947Z,2.37
2019-02-22T16:01:55.601Z,4.40
2019-02-22T16:04:38.473Z,3.67
2019-02-22T16:07:06.934Z,3.17
2019-02-22T16:12:43.792Z,3.73
2019-02-22T16:15:52.269Z,7.93
2019-02-22T16:18:20.728Z,3.37
2019-02-22T16:20:49.157Z,3.10
2019-02-22T16:23:37.328Z,3.43
2019-02-22T16:26:05.755Z,4.20
2019-02-22T16:28:34.507Z,3.57
2019-02-22T16:31:03.531Z,5.93
2019-02-22T16:33:33.900Z,5.40
2019-02-22T16:36:02.342Z,2.97
2019-02-22T16:41:24.448Z,3.67
2019-02-22T16:43:52.968Z,4.23
2019-02-22T16:46:21.396Z,3.73
2019-02-22T16:48:49.832Z,4.53
2019-02-22T16:51:18.568Z,8.50
2019-02-22T16:53:47.351Z,7.57
2019-02-22T16:56:16.146Z,10.00
2019-02-22T16:58:44.604Z,6.70
2019-02-22T17:01:32.688Z,4.70
2019-02-22T17:04:01.157Z,4.17
2019-02-22T17:06:29.591Z,5.07
2019-02-22T17:08:58.029Z,4.17
2019-02-22T17:11:26.492Z,4.70
2019-02-22T17:13:54.924Z,4.70
2019-02-22T17:16:23.657Z,8.73
2019-02-22T17:18:52.102Z,8.67
2019-02-22T17:21:20.625Z,4.10
2019-02-22T17:23:49.042Z,4.50
2019-02-22T17:26:17.855Z,5.23
2019-02-22T17:28:46.366Z,4.60
2019-02-22T17:31:14.786Z,8.60
2019-02-22T17:33:43.246Z,5.03
2019-02-22T17:36:12.032Z,4.67
2019-02-22T17:38:40.570Z,7.13
2019-02-22T17:41:09.009Z,6.97
2019-02-22T17:43:37.521Z,7.00
2019-02-22T17:46:25.230Z,5.07
2019-02-22T17:49:13.067Z,4.93
2019-02-22T17:52:00.969Z,10.43
2019-02-22T17:54:29.394Z,6.57
2019-02-22T17:56:57.821Z,4.47
2019-02-22T17:59:26.292Z,5.27
2019-02-22T18:01:54.734Z,6.10
2019-02-22T18:04:23.168Z,6.20
2019-02-22T18:06:51.719Z,8.57
2019-02-22T18:09:20.434Z,6.67
2019-02-22T18:11:48.862Z,8.40
2019-02-22T18:14:17.319Z,7.13
2019-02-22T18:16:46.118Z,5.47
2019-02-22T18:19:14.546Z,6.23
2019-02-22T18:21:43.006Z,5.67
2019-02-22T18:24:11.432Z,7.97
2019-02-22T18:26:59.392Z,7.87
2019-02-22T18:29:47.409Z,5.87
2019-02-22T18:34:50.520Z,6.43
2019-02-22T18:37:18.966Z,6.07
2019-02-22T18:39:47.411Z,5.17
2019-02-22T18:42:16.155Z,15.20
2019-02-22T18:44:44.606Z,6.63
2019-02-22T18:47:19.232Z,5.90
2019-02-22T18:49:43.195Z,6.50
2019-02-22T18:52:11.938Z,9.47
2019-02-22T18:54:40.399Z,6.90
2019-02-22T18:57:09.194Z,8.53
2019-02-22T18:59:37.625Z,8.00
2019-02-22T19:02:25.547Z,10.13
2019-02-22T19:04:53.974Z,7.73
2019-02-22T19:07:22.487Z,9.10
2019-02-22T19:09:51.263Z,11.17
2019-02-22T19:12:19.688Z,7.73
2019-02-22T19:14:48.428Z,17.43
2019-02-22T19:17:16.890Z,9.60
2019-02-22T19:19:45.599Z,9.87
2019-02-22T19:22:14.284Z,10.40
2019-02-22T19:24:42.786Z,8.30
2019-02-22T19:27:11.224Z,10.23
2019-02-22T19:29:39.645Z,8.87
2019-02-22T19:34:42.629Z,7.93
2019-02-22T19:37:11.286Z,7.93
2019-02-22T19:39:39.784Z,8.67
2019-02-22T19:42:08.353Z,9.20
2019-02-22T19:47:10.747Z,7.33
2019-02-22T19:49:58.781Z,9.20
2019-02-22T19:52:46.444Z,11.50
2019-02-22T19:55:55.134Z,9.70
2019-02-22T19:59:03.678Z,8.43
2019-02-22T20:04:45.016Z,14.43
2019-02-22T20:07:15.813Z,9.40
2019-02-22T20:09:44.653Z,7.60
2019-02-22T20:15:46.632Z,8.87
2019-02-22T20:18:35.354Z,9.30
2019-02-22T20:21:23.285Z,7.07
2019-02-22T20:23:51.768Z,9.60
2019-02-22T20:26:32.780Z,14.20
2019-02-22T20:29:01.401Z,14.00
2019-02-22T20:31:49.635Z,10.77
2019-02-22T20:34:37.371Z,10.77
2019-02-22T20:37:25.559Z,8.10
2019-02-22T20:39:55.999Z,11.03
2019-02-22T20:42:24.468Z,8.37
2019-02-22T20:44:53.303Z,16.90
2019-02-22T20:47:41.067Z,22.63
2019-02-22T20:50:49.441Z,14.33
2019-02-22T20:53:37.396Z,19.77
2019-02-22T20:56:25.300Z,9.17
2019-02-22T20:58:54.314Z,14.07
2019-02-22T21:01:22.945Z,10.40
2019-02-22T21:03:51.409Z,13.70
2019-02-22T21:06:20.299Z,10.67
2019-02-22T21:08:48.757Z,9.73
2019-02-22T21:11:18.051Z,11.47
2019-02-22T21:13:47.194Z,12.00
2019-02-22T21:16:15.738Z,10.63
2019-02-22T21:18:46.187Z,17.30
2019-02-22T21:21:14.569Z,13.70
2019-02-22T21:23:43.000Z,14.77
2019-02-22T21:26:11.495Z,8.70
2019-02-22T21:28:40.111Z,12.87
2019-02-22T21:31:08.871Z,10.77
2019-02-22T21:33:37.388Z,8.60
2019-02-22T21:36:05.846Z,17.60
2019-02-22T21:38:34.272Z,11.40
2019-02-22T21:41:02.701Z,11.13
2019-02-22T21:43:31.158Z,11.40
2019-02-22T21:45:59.588Z,13.90
2019-02-22T21:48:28.320Z,11.83
2019-02-22T21:50:57.311Z,19.40
2019-02-22T21:53:25.738Z,10.30
2019-02-22T21:55:54.159Z,13.67
2019-02-22T21:58:22.821Z,9.93
2019-02-22T22:00:51.223Z,12.30
2019-02-22T22:03:19.654Z,11.90
2019-02-22T22:05:48.438Z,19.30
2019-02-22T22:08:17.207Z,15.50
2019-02-22T22:10:45.721Z,17.20
2019-02-22T22:13:14.173Z,13.40
2019-02-22T22:15:42.591Z,16.90
2019-02-22T22:18:11.917Z,20.00
2019-02-22T22:20:40.829Z,16.33
2019-02-22T22:23:09.631Z,16.50
2019-02-22T22:25:38.059Z,10.17
2019-02-22T22:28:06.508Z,14.10
2019-02-22T22:30:35.254Z,14.90
2019-02-22T22:33:03.789Z,11.97
2019-02-22T22:35:32.652Z,13.20
2019-02-22T22:38:01.080Z,12.00
2019-02-22T22:40:29.806Z,10.60
2019-02-22T22:42:58.279Z,13.40
2019-02-22T22:45:26.761Z,9.90
2019-02-22T22:47:55.504Z,15.80
2019-02-22T22:50:27.230Z,16.73
2019-02-22T22:52:55.650Z,11.37
2019-02-22T22:55:24.081Z,11.27
2019-02-22T22:57:52.553Z,13.27
2019-02-22T23:00:52.888Z,8.57
2019-02-22T23:03:22.186Z,11.03
2019-02-22T23:05:50.685Z,12.60
2019-02-22T23:08:19.451Z,9.67
2019-02-22T23:10:47.975Z,11.63
2019-02-22T23:13:16.727Z,8.73
2019-02-22T23:15:45.134Z,9.20
2019-02-22T23:18:13.945Z,13.70
2019-02-22T23:20:42.673Z,9.20
2019-02-22T23:23:11.200Z,8.00
2019-02-22T23:25:39.647Z,6.70
2019-02-22T23:28:08.093Z,9.00
2019-02-22T23:30:36.493Z,9.60
2019-02-22T23:33:05.442Z,6.53
2019-02-22T23:35:33.862Z,8.53
2019-02-22T23:38:02.296Z,6.93
2019-02-22T23:40:30.848Z,9.60
2019-02-22T23:43:00.375Z,7.33
2019-02-22T23:45:28.799Z,7.60
2019-02-22T23:47:57.669Z,9.40
2019-02-22T23:50:26.203Z,6.43
2019-02-22T23:52:54.618Z,7.17
2019-02-22T23:55:23.180Z,5.80
2019-02-22T23:57:51.604Z,6.77
